sensor_id;sensor_type;location;lat;lon;timestamp;temperature;humidity
37530;DHT22;23374;52.758;6.872;2023-05-07T00:01:10;14.90;1.00
37530;DHT22;23374;52.758;6.872;2023-05-07T00:03:31;14.90;1.00
37530;DHT22;23374;52.758;6.872;2023-05-07T00:05:51;14.90;1.00
37530;DHT22;23374;52.758;6.872;2023-05-07T00:08:13;14.80;1.00
37530;DHT22;23374;52.758;6.872;2023-05-07T00:10:33;14.80;1.00
37530;DHT22;23374;52.758;6.872;2023-05-07T00:12:54;14.80;1.00
37530;DHT22;23374;52.758;6.872;2023-05-07T00:15:14;14.80;1.00
37530;DHT22;23374;52.758;6.872;2023-05-07T00:17:35;14.80;1.00
37530;DHT22;23374;52.758;6.872;2023-05-07T00:19:55;14.70;1.00
37530;DHT22;23374;52.758;6.872;2023-05-07T00:22:18;14.70;1.00
37530;DHT22;23374;52.758;6.872;2023-05-07T00:24:38;14.60;1.00
37530;DHT22;23374;52.758;6.872;2023-05-07T00:26:59;14.60;1.00
37530;DHT22;23374;52.758;6.872;2023-05-07T00:29:19;14.50;1.00
37530;DHT22;23374;52.758;6.872;2023-05-07T00:31:39;14.50;99.90
37530;DHT22;23374;52.758;6.872;2023-05-07T00:34:00;14.50;99.90
37530;DHT22;23374;52.758;6.872;2023-05-07T00:36:20;14.50;99.90
37530;DHT22;23374;52.758;6.872;2023-05-07T00:38:41;14.30;99.90
37530;DHT22;23374;52.758;6.872;2023-05-07T00:41:01;14.30;1.00
37530;DHT22;23374;52.758;6.872;2023-05-07T00:45:55;14.20;1.00
37530;DHT22;23374;52.758;6.872;2023-05-07T00:48:16;14.10;1.00
37530;DHT22;23374;52.758;6.872;2023-05-07T00:50:36;14.10;1.00
37530;DHT22;23374;52.758;6.872;2023-05-07T00:52:58;14.10;99.90
37530;DHT22;23374;52.758;6.872;2023-05-07T00:55:19;14.10;99.90
37530;DHT22;23374;52.758;6.872;2023-05-07T00:57:41;14.10;99.90
37530;DHT22;23374;52.758;6.872;2023-05-07T01:00:04;14.10;99.90
37530;DHT22;23374;52.758;6.872;2023-05-07T01:02:25;14.00;99.90
37530;DHT22;23374;52.758;6.872;2023-05-07T01:04:45;14.00;99.90
37530;DHT22;23374;52.758;6.872;2023-05-07T01:07:06;13.90;99.90
37530;DHT22;23374;52.758;6.872;2023-05-07T01:09:27;13.90;99.90
37530;DHT22;23374;52.758;6.872;2023-05-07T01:11:49;13.80;99.90
37530;DHT22;23374;52.758;6.872;2023-05-07T01:14:10;13.80;1.00
37530;DHT22;23374;52.758;6.872;2023-05-07T01:16:31;13.80;99.90
37530;DHT22;23374;52.758;6.872;2023-05-07T01:18:51;13.70;1.00
37530;DHT22;23374;52.758;6.872;2023-05-07T01:22:38;13.60;1.00
37530;DHT22;23374;52.758;6.872;2023-05-07T01:24:59;13.50;1.00
37530;DHT22;23374;52.758;6.872;2023-05-07T01:27:21;13.50;99.90
37530;DHT22;23374;52.758;6.872;2023-05-07T01:29:42;13.40;1.00
37530;DHT22;23374;52.758;6.872;2023-05-07T01:32:03;13.40;1.00
37530;DHT22;23374;52.758;6.872;2023-05-07T01:34:25;13.40;1.00
37530;DHT22;23374;52.758;6.872;2023-05-07T01:36:47;13.30;1.00
37530;DHT22;23374;52.758;6.872;2023-05-07T01:39:09;13.20;1.00
37530;DHT22;23374;52.758;6.872;2023-05-07T01:41:31;13.20;1.00
37530;DHT22;23374;52.758;6.872;2023-05-07T01:43:52;13.20;1.00
37530;DHT22;23374;52.758;6.872;2023-05-07T01:46:15;13.20;1.00
37530;DHT22;23374;52.758;6.872;2023-05-07T01:48:36;13.10;1.00
37530;DHT22;23374;52.758;6.872;2023-05-07T01:50:57;13.10;1.00
37530;DHT22;23374;52.758;6.872;2023-05-07T01:53:18;13.10;1.00
37530;DHT22;23374;52.758;6.872;2023-05-07T01:55:38;13.10;1.00
37530;DHT22;23374;52.758;6.872;2023-05-07T01:58:00;13.10;1.00
37530;DHT22;23374;52.758;6.872;2023-05-07T02:00:21;13.10;99.90
37530;DHT22;23374;52.758;6.872;2023-05-07T02:02:41;13.00;1.00
37530;DHT22;23374;52.758;6.872;2023-05-07T02:05:02;13.00;1.00
37530;DHT22;23374;52.758;6.872;2023-05-07T02:07:22;13.00;1.00
37530;DHT22;23374;52.758;6.872;2023-05-07T02:09:42;13.00;1.00
37530;DHT22;23374;52.758;6.872;2023-05-07T02:12:03;13.00;99.90
37530;DHT22;23374;52.758;6.872;2023-05-07T02:14:23;13.00;36.90
37530;DHT22;23374;52.758;6.872;2023-05-07T02:16:44;13.00;1.00
37530;DHT22;23374;52.758;6.872;2023-05-07T02:19:04;13.00;1.00
37530;DHT22;23374;52.758;6.872;2023-05-07T02:21:25;13.00;1.00
37530;DHT22;23374;52.758;6.872;2023-05-07T02:23:45;12.90;1.00
37530;DHT22;23374;52.758;6.872;2023-05-07T02:26:05;12.90;1.00
37530;DHT22;23374;52.758;6.872;2023-05-07T02:28:26;12.90;1.00
37530;DHT22;23374;52.758;6.872;2023-05-07T02:30:47;12.80;1.00
37530;DHT22;23374;52.758;6.872;2023-05-07T02:33:07;12.80;1.00
37530;DHT22;23374;52.758;6.872;2023-05-07T02:35:28;12.80;1.00
37530;DHT22;23374;52.758;6.872;2023-05-07T02:37:49;12.70;1.00
37530;DHT22;23374;52.758;6.872;2023-05-07T02:40:11;12.70;86.60
37530;DHT22;23374;52.758;6.872;2023-05-07T02:42:31;12.70;1.00
37530;DHT22;23374;52.758;6.872;2023-05-07T02:44:52;12.70;13.70
37530;DHT22;23374;52.758;6.872;2023-05-07T02:47:14;12.70;1.00
37530;DHT22;23374;52.758;6.872;2023-05-07T02:49:35;12.70;1.00
37530;DHT22;23374;52.758;6.872;2023-05-07T02:51:55;12.70;1.00
37530;DHT22;23374;52.758;6.872;2023-05-07T02:54:16;12.70;1.00
37530;DHT22;23374;52.758;6.872;2023-05-07T02:56:37;12.70;1.00
37530;DHT22;23374;52.758;6.872;2023-05-07T02:58:58;12.70;1.00
37530;DHT22;23374;52.758;6.872;2023-05-07T03:01:18;12.70;1.00
37530;DHT22;23374;52.758;6.872;2023-05-07T03:03:39;12.70;99.90
37530;DHT22;23374;52.758;6.872;2023-05-07T03:05:59;12.70;92.60
37530;DHT22;23374;52.758;6.872;2023-05-07T03:08:20;12.60;1.00
37530;DHT22;23374;52.758;6.872;2023-05-07T03:12:22;12.60;1.00
37530;DHT22;23374;52.758;6.872;2023-05-07T03:14:42;12.60;1.00
37530;DHT22;23374;52.758;6.872;2023-05-07T03:17:03;12.60;1.00
37530;DHT22;23374;52.758;6.872;2023-05-07T03:19:23;12.60;1.00
37530;DHT22;23374;52.758;6.872;2023-05-07T03:21:43;12.60;99.90
37530;DHT22;23374;52.758;6.872;2023-05-07T03:24:04;12.60;1.00
37530;DHT22;23374;52.758;6.872;2023-05-07T03:26:24;12.50;1.00
37530;DHT22;23374;52.758;6.872;2023-05-07T03:28:45;12.50;1.00
37530;DHT22;23374;52.758;6.872;2023-05-07T03:31:05;12.60;1.00
37530;DHT22;23374;52.758;6.872;2023-05-07T03:33:26;12.60;1.00
37530;DHT22;23374;52.758;6.872;2023-05-07T03:35:47;12.60;1.00
37530;DHT22;23374;52.758;6.872;2023-05-07T03:38:07;12.60;1.00
37530;DHT22;23374;52.758;6.872;2023-05-07T03:40:28;12.60;1.00
37530;DHT22;23374;52.758;6.872;2023-05-07T03:42:48;12.60;1.00
37530;DHT22;23374;52.758;6.872;2023-05-07T03:45:09;12.50;1.00
37530;DHT22;23374;52.758;6.872;2023-05-07T03:47:30;12.50;1.00
37530;DHT22;23374;52.758;6.872;2023-05-07T03:49:50;12.40;1.00
37530;DHT22;23374;52.758;6.872;2023-05-07T03:52:13;12.40;99.90
37530;DHT22;23374;52.758;6.872;2023-05-07T03:54:33;12.50;1.00
37530;DHT22;23374;52.758;6.872;2023-05-07T03:56:53;12.50;1.00
37530;DHT22;23374;52.758;6.872;2023-05-07T03:59:14;12.40;1.00
37530;DHT22;23374;52.758;6.872;2023-05-07T04:01:34;12.40;1.00
37530;DHT22;23374;52.758;6.872;2023-05-07T04:03:56;12.40;1.00
37530;DHT22;23374;52.758;6.872;2023-05-07T04:06:16;12.40;1.00
37530;DHT22;23374;52.758;6.872;2023-05-07T04:08:40;12.40;1.00
37530;DHT22;23374;52.758;6.872;2023-05-07T04:11:01;12.40;1.00
37530;DHT22;23374;52.758;6.872;2023-05-07T04:13:21;12.40;1.00
37530;DHT22;23374;52.758;6.872;2023-05-07T04:15:41;12.40;1.00
37530;DHT22;23374;52.758;6.872;2023-05-07T04:18:02;12.40;1.00
37530;DHT22;23374;52.758;6.872;2023-05-07T04:20:23;12.40;1.00
37530;DHT22;23374;52.758;6.872;2023-05-07T04:22:44;12.40;1.00
37530;DHT22;23374;52.758;6.872;2023-05-07T04:25:05;12.40;1.00
37530;DHT22;23374;52.758;6.872;2023-05-07T04:27:26;12.40;1.00
37530;DHT22;23374;52.758;6.872;2023-05-07T04:29:48;12.30;1.00
37530;DHT22;23374;52.758;6.872;2023-05-07T04:32:09;12.30;1.00
37530;DHT22;23374;52.758;6.872;2023-05-07T04:34:30;12.30;1.00
37530;DHT22;23374;52.758;6.872;2023-05-07T04:36:50;12.40;1.00
37530;DHT22;23374;52.758;6.872;2023-05-07T04:39:10;12.40;1.00
37530;DHT22;23374;52.758;6.872;2023-05-07T04:41:30;12.40;1.00
37530;DHT22;23374;52.758;6.872;2023-05-07T04:43:51;12.40;1.00
37530;DHT22;23374;52.758;6.872;2023-05-07T04:46:11;12.40;1.00
37530;DHT22;23374;52.758;6.872;2023-05-07T04:48:32;12.40;1.00
37530;DHT22;23374;52.758;6.872;2023-05-07T04:50:52;12.40;1.00
37530;DHT22;23374;52.758;6.872;2023-05-07T04:53:13;12.40;1.00
37530;DHT22;23374;52.758;6.872;2023-05-07T04:55:34;12.40;1.00
37530;DHT22;23374;52.758;6.872;2023-05-07T04:57:54;12.40;1.00
37530;DHT22;23374;52.758;6.872;2023-05-07T05:00:15;12.30;1.00
37530;DHT22;23374;52.758;6.872;2023-05-07T05:02:36;12.30;99.90
37530;DHT22;23374;52.758;6.872;2023-05-07T05:04:56;12.30;1.00
37530;DHT22;23374;52.758;6.872;2023-05-07T05:07:17;12.30;1.00
37530;DHT22;23374;52.758;6.872;2023-05-07T05:09:37;12.30;1.00
37530;DHT22;23374;52.758;6.872;2023-05-07T05:11:58;12.30;1.00
37530;DHT22;23374;52.758;6.872;2023-05-07T05:14:19;12.30;1.00
37530;DHT22;23374;52.758;6.872;2023-05-07T05:16:39;12.40;1.00
37530;DHT22;23374;52.758;6.872;2023-05-07T05:19:02;12.40;1.00
37530;DHT22;23374;52.758;6.872;2023-05-07T05:21:23;12.40;1.00
37530;DHT22;23374;52.758;6.872;2023-05-07T05:23:43;12.50;99.90
37530;DHT22;23374;52.758;6.872;2023-05-07T05:26:03;12.50;1.00
37530;DHT22;23374;52.758;6.872;2023-05-07T05:28:24;12.40;1.00
37530;DHT22;23374;52.758;6.872;2023-05-07T05:30:45;12.40;99.90
37530;DHT22;23374;52.758;6.872;2023-05-07T05:33:05;12.30;1.00
37530;DHT22;23374;52.758;6.872;2023-05-07T05:35:25;12.40;1.00
37530;DHT22;23374;52.758;6.872;2023-05-07T05:37:46;12.40;1.00
37530;DHT22;23374;52.758;6.872;2023-05-07T05:40:08;12.50;1.00
37530;DHT22;23374;52.758;6.872;2023-05-07T05:42:29;12.50;1.00
37530;DHT22;23374;52.758;6.872;2023-05-07T05:44:50;12.60;1.00
37530;DHT22;23374;52.758;6.872;2023-05-07T05:47:10;12.50;99.90
37530;DHT22;23374;52.758;6.872;2023-05-07T05:49:30;12.50;99.90
37530;DHT22;23374;52.758;6.872;2023-05-07T05:51:50;12.60;79.50
37530;DHT22;23374;52.758;6.872;2023-05-07T05:54:11;12.60;99.90
37530;DHT22;23374;52.758;6.872;2023-05-07T05:56:31;12.70;99.90
37530;DHT22;23374;52.758;6.872;2023-05-07T05:58:52;12.70;1.00
37530;DHT22;23374;52.758;6.872;2023-05-07T06:01:13;12.70;99.90
37530;DHT22;23374;52.758;6.872;2023-05-07T06:03:33;12.70;99.90
37530;DHT22;23374;52.758;6.872;2023-05-07T06:05:53;12.70;99.90
37530;DHT22;23374;52.758;6.872;2023-05-07T06:08:13;12.70;99.90
37530;DHT22;23374;52.758;6.872;2023-05-07T06:10:37;12.70;99.90
37530;DHT22;23374;52.758;6.872;2023-05-07T06:12:57;12.80;99.90
37530;DHT22;23374;52.758;6.872;2023-05-07T06:15:17;12.80;99.90
37530;DHT22;23374;52.758;6.872;2023-05-07T06:17:38;12.90;42.30
37530;DHT22;23374;52.758;6.872;2023-05-07T06:19:58;12.90;99.90
37530;DHT22;23374;52.758;6.872;2023-05-07T06:22:19;12.90;1.00
37530;DHT22;23374;52.758;6.872;2023-05-07T06:24:40;12.90;1.00
37530;DHT22;23374;52.758;6.872;2023-05-07T06:27:00;12.80;35.70
37530;DHT22;23374;52.758;6.872;2023-05-07T06:29:21;12.80;8.50
37530;DHT22;23374;52.758;6.872;2023-05-07T06:31:41;12.90;1.00
37530;DHT22;23374;52.758;6.872;2023-05-07T06:34:02;12.80;14.90
37530;DHT22;23374;52.758;6.872;2023-05-07T06:36:23;12.80;99.90
37530;DHT22;23374;52.758;6.872;2023-05-07T06:38:43;12.80;1.00
37530;DHT22;23374;52.758;6.872;2023-05-07T06:41:05;12.80;99.90
37530;DHT22;23374;52.758;6.872;2023-05-07T06:43:25;12.80;74.90
37530;DHT22;23374;52.758;6.872;2023-05-07T06:45:46;12.90;1.00
37530;DHT22;23374;52.758;6.872;2023-05-07T06:48:06;12.90;99.90
37530;DHT22;23374;52.758;6.872;2023-05-07T06:50:27;12.90;99.90
37530;DHT22;23374;52.758;6.872;2023-05-07T06:52:47;13.00;99.90
37530;DHT22;23374;52.758;6.872;2023-05-07T06:55:09;13.00;1.00
37530;DHT22;23374;52.758;6.872;2023-05-07T06:57:29;13.00;1.00
37530;DHT22;23374;52.758;6.872;2023-05-07T06:59:49;13.00;1.00
37530;DHT22;23374;52.758;6.872;2023-05-07T07:02:10;13.00;99.90
37530;DHT22;23374;52.758;6.872;2023-05-07T07:04:30;13.00;1.00
37530;DHT22;23374;52.758;6.872;2023-05-07T07:06:54;13.00;1.00
37530;DHT22;23374;52.758;6.872;2023-05-07T07:09:14;13.00;1.00
37530;DHT22;23374;52.758;6.872;2023-05-07T07:11:35;13.00;1.00
37530;DHT22;23374;52.758;6.872;2023-05-07T07:13:55;13.00;1.00
37530;DHT22;23374;52.758;6.872;2023-05-07T07:16:17;13.00;99.90
37530;DHT22;23374;52.758;6.872;2023-05-07T07:18:38;13.00;99.90
37530;DHT22;23374;52.758;6.872;2023-05-07T07:20:58;13.10;99.90
37530;DHT22;23374;52.758;6.872;2023-05-07T07:23:19;13.10;1.00
37530;DHT22;23374;52.758;6.872;2023-05-07T07:25:39;13.20;1.00
37530;DHT22;23374;52.758;6.872;2023-05-07T07:28:00;13.20;99.90
37530;DHT22;23374;52.758;6.872;2023-05-07T07:30:21;13.20;1.00
37530;DHT22;23374;52.758;6.872;2023-05-07T07:32:41;13.30;1.00
37530;DHT22;23374;52.758;6.872;2023-05-07T07:35:03;13.30;1.00
37530;DHT22;23374;52.758;6.872;2023-05-07T07:37:23;13.50;1.00
37530;DHT22;23374;52.758;6.872;2023-05-07T07:39:45;13.60;99.90
37530;DHT22;23374;52.758;6.872;2023-05-07T07:42:05;13.60;99.90
37530;DHT22;23374;52.758;6.872;2023-05-07T07:44:27;13.70;99.90
37530;DHT22;23374;52.758;6.872;2023-05-07T07:46:47;13.80;1.00
37530;DHT22;23374;52.758;6.872;2023-05-07T07:49:08;13.80;99.90
37530;DHT22;23374;52.758;6.872;2023-05-07T07:51:28;13.80;8.90
37530;DHT22;23374;52.758;6.872;2023-05-07T07:53:48;13.90;1.00
37530;DHT22;23374;52.758;6.872;2023-05-07T07:56:09;13.90;1.00
37530;DHT22;23374;52.758;6.872;2023-05-07T07:58:29;13.90;99.90
37530;DHT22;23374;52.758;6.872;2023-05-07T08:00:50;13.90;1.00
37530;DHT22;23374;52.758;6.872;2023-05-07T08:03:11;13.90;1.00
37530;DHT22;23374;52.758;6.872;2023-05-07T08:05:31;14.00;99.90
37530;DHT22;23374;52.758;6.872;2023-05-07T08:07:51;14.10;1.00
37530;DHT22;23374;52.758;6.872;2023-05-07T08:10:12;14.10;1.00
37530;DHT22;23374;52.758;6.872;2023-05-07T08:12:33;14.10;1.00
37530;DHT22;23374;52.758;6.872;2023-05-07T08:14:53;14.30;57.70
37530;DHT22;23374;52.758;6.872;2023-05-07T08:17:13;14.30;1.00
37530;DHT22;23374;52.758;6.872;2023-05-07T08:19:36;14.40;1.00
37530;DHT22;23374;52.758;6.872;2023-05-07T08:21:56;14.40;99.90
37530;DHT22;23374;52.758;6.872;2023-05-07T08:24:17;14.30;1.00
37530;DHT22;23374;52.758;6.872;2023-05-07T08:26:38;14.30;1.00
37530;DHT22;23374;52.758;6.872;2023-05-07T08:28:59;14.40;1.00
37530;DHT22;23374;52.758;6.872;2023-05-07T08:31:20;14.50;99.90
37530;DHT22;23374;52.758;6.872;2023-05-07T08:33:40;14.60;99.90
37530;DHT22;23374;52.758;6.872;2023-05-07T08:36:00;14.60;99.90
37530;DHT22;23374;52.758;6.872;2023-05-07T08:38:20;14.60;99.90
37530;DHT22;23374;52.758;6.872;2023-05-07T08:40:41;14.70;99.90
37530;DHT22;23374;52.758;6.872;2023-05-07T08:43:02;14.70;99.20
37530;DHT22;23374;52.758;6.872;2023-05-07T08:45:23;14.70;99.90
37530;DHT22;23374;52.758;6.872;2023-05-07T08:47:46;14.80;99.90
37530;DHT22;23374;52.758;6.872;2023-05-07T08:50:07;14.80;95.00
37530;DHT22;23374;52.758;6.872;2023-05-07T08:52:28;14.90;99.90
37530;DHT22;23374;52.758;6.872;2023-05-07T08:54:49;15.00;99.90
37530;DHT22;23374;52.758;6.872;2023-05-07T08:57:09;15.10;99.90
37530;DHT22;23374;52.758;6.872;2023-05-07T08:59:30;15.20;1.00
37530;DHT22;23374;52.758;6.872;2023-05-07T09:01:50;15.20;99.90
37530;DHT22;23374;52.758;6.872;2023-05-07T09:04:11;15.20;1.00
37530;DHT22;23374;52.758;6.872;2023-05-07T09:06:34;15.30;1.00
37530;DHT22;23374;52.758;6.872;2023-05-07T09:08:55;15.30;1.00
37530;DHT22;23374;52.758;6.872;2023-05-07T09:11:15;15.40;99.60
37530;DHT22;23374;52.758;6.872;2023-05-07T09:13:37;15.50;1.00
37530;DHT22;23374;52.758;6.872;2023-05-07T09:15:59;15.60;1.00
37530;DHT22;23374;52.758;6.872;2023-05-07T09:18:27;15.60;1.00
37530;DHT22;23374;52.758;6.872;2023-05-07T09:20:47;15.70;1.00
37530;DHT22;23374;52.758;6.872;2023-05-07T09:23:08;15.70;1.00
37530;DHT22;23374;52.758;6.872;2023-05-07T09:25:32;15.70;1.00
37530;DHT22;23374;52.758;6.872;2023-05-07T09:27:53;15.80;22.80
37530;DHT22;23374;52.758;6.872;2023-05-07T09:30:13;16.00;1.00
37530;DHT22;23374;52.758;6.872;2023-05-07T09:32:37;16.20;99.90
37530;DHT22;23374;52.758;6.872;2023-05-07T09:35:00;16.20;99.90
37530;DHT22;23374;52.758;6.872;2023-05-07T09:37:21;16.40;99.90
37530;DHT22;23374;52.758;6.872;2023-05-07T09:39:47;16.50;99.90
37530;DHT22;23374;52.758;6.872;2023-05-07T09:42:08;16.70;1.00
37530;DHT22;23374;52.758;6.872;2023-05-07T09:44:28;16.80;1.00
37530;DHT22;23374;52.758;6.872;2023-05-07T09:46:54;16.90;99.90
37530;DHT22;23374;52.758;6.872;2023-05-07T09:49:23;16.90;99.90
37530;DHT22;23374;52.758;6.872;2023-05-07T09:51:52;17.00;99.90
37530;DHT22;23374;52.758;6.872;2023-05-07T09:54:12;17.20;99.90
37530;DHT22;23374;52.758;6.872;2023-05-07T09:56:34;17.30;99.90
37530;DHT22;23374;52.758;6.872;2023-05-07T09:59:00;17.30;99.90
37530;DHT22;23374;52.758;6.872;2023-05-07T10:01:21;17.30;99.90
37530;DHT22;23374;52.758;6.872;2023-05-07T10:03:44;17.40;99.90
37530;DHT22;23374;52.758;6.872;2023-05-07T10:06:06;17.60;99.90
37530;DHT22;23374;52.758;6.872;2023-05-07T10:08:27;17.70;90.50
37530;DHT22;23374;52.758;6.872;2023-05-07T10:10:49;17.90;98.40
37530;DHT22;23374;52.758;6.872;2023-05-07T10:13:10;18.00;1.00
37530;DHT22;23374;52.758;6.872;2023-05-07T10:15:31;18.00;1.00
37530;DHT22;23374;52.758;6.872;2023-05-07T10:17:53;18.00;1.00
37530;DHT22;23374;52.758;6.872;2023-05-07T10:20:14;17.90;1.00
37530;DHT22;23374;52.758;6.872;2023-05-07T10:22:48;17.90;1.00
37530;DHT22;23374;52.758;6.872;2023-05-07T10:25:30;17.90;99.90
37530;DHT22;23374;52.758;6.872;2023-05-07T10:27:52;17.90;1.00
37530;DHT22;23374;52.758;6.872;2023-05-07T10:30:55;18.00;79.10
37530;DHT22;23374;52.758;6.872;2023-05-07T10:33:24;18.20;1.00
37530;DHT22;23374;52.758;6.872;2023-05-07T10:35:47;18.10;1.00
37530;DHT22;23374;52.758;6.872;2023-05-07T10:38:08;18.10;1.00
37530;DHT22;23374;52.758;6.872;2023-05-07T10:40:31;18.10;1.00
37530;DHT22;23374;52.758;6.872;2023-05-07T10:43:02;18.10;1.00
37530;DHT22;23374;52.758;6.872;2023-05-07T10:45:25;18.20;1.00
37530;DHT22;23374;52.758;6.872;2023-05-07T10:48:31;18.30;1.00
37530;DHT22;23374;52.758;6.872;2023-05-07T10:51:32;18.30;99.90
37530;DHT22;23374;52.758;6.872;2023-05-07T10:56:30;18.50;99.90
37530;DHT22;23374;52.758;6.872;2023-05-07T10:58:51;18.70;1.00
37530;DHT22;23374;52.758;6.872;2023-05-07T11:01:12;18.80;1.00
37530;DHT22;23374;52.758;6.872;2023-05-07T11:03:33;18.90;1.00
37530;DHT22;23374;52.758;6.872;2023-05-07T11:06:16;18.90;1.00
37530;DHT22;23374;52.758;6.872;2023-05-07T11:12:08;18.70;99.90
37530;DHT22;23374;52.758;6.872;2023-05-07T11:14:45;18.60;99.90
37530;DHT22;23374;52.758;6.872;2023-05-07T11:17:07;18.60;99.90
37530;DHT22;23374;52.758;6.872;2023-05-07T11:19:53;18.60;99.90
37530;DHT22;23374;52.758;6.872;2023-05-07T11:29:02;18.70;99.90
37530;DHT22;23374;52.758;6.872;2023-05-07T11:31:27;19.00;99.90
37530;DHT22;23374;52.758;6.872;2023-05-07T11:33:48;19.00;1.00
37530;DHT22;23374;52.758;6.872;2023-05-07T11:36:10;19.10;99.90
37530;DHT22;23374;52.758;6.872;2023-05-07T11:38:33;19.20;99.90
37530;DHT22;23374;52.758;6.872;2023-05-07T11:40:59;19.30;99.90
37530;DHT22;23374;52.758;6.872;2023-05-07T11:43:25;19.40;99.90
37530;DHT22;23374;52.758;6.872;2023-05-07T11:45:46;19.40;1.00
37530;DHT22;23374;52.758;6.872;2023-05-07T11:48:16;19.50;99.90
37530;DHT22;23374;52.758;6.872;2023-05-07T11:50:53;19.40;99.90
37530;DHT22;23374;52.758;6.872;2023-05-07T11:53:14;19.50;1.30
37530;DHT22;23374;52.758;6.872;2023-05-07T11:55:34;19.40;99.90
37530;DHT22;23374;52.758;6.872;2023-05-07T11:57:54;19.50;99.90
37530;DHT22;23374;52.758;6.872;2023-05-07T12:00:16;19.50;99.90
37530;DHT22;23374;52.758;6.872;2023-05-07T12:02:37;19.50;1.00
37530;DHT22;23374;52.758;6.872;2023-05-07T12:04:57;19.50;1.00
37530;DHT22;23374;52.758;6.872;2023-05-07T12:07:20;19.40;99.90
37530;DHT22;23374;52.758;6.872;2023-05-07T12:09:42;19.50;99.90
37530;DHT22;23374;52.758;6.872;2023-05-07T12:12:06;19.40;99.90
37530;DHT22;23374;52.758;6.872;2023-05-07T12:14:29;19.50;99.90
37530;DHT22;23374;52.758;6.872;2023-05-07T12:16:49;19.50;90.50
37530;DHT22;23374;52.758;6.872;2023-05-07T12:19:10;19.40;99.90
37530;DHT22;23374;52.758;6.872;2023-05-07T12:21:33;19.40;99.90
37530;DHT22;23374;52.758;6.872;2023-05-07T12:23:54;19.60;1.00
37530;DHT22;23374;52.758;6.872;2023-05-07T12:26:15;19.50;33.10
37530;DHT22;23374;52.758;6.872;2023-05-07T12:28:38;19.60;99.90
37530;DHT22;23374;52.758;6.872;2023-05-07T12:30:59;19.60;99.90
37530;DHT22;23374;52.758;6.872;2023-05-07T12:33:26;19.50;99.90
37530;DHT22;23374;52.758;6.872;2023-05-07T12:35:48;19.50;99.00
37530;DHT22;23374;52.758;6.872;2023-05-07T12:38:13;19.50;99.90
37530;DHT22;23374;52.758;6.872;2023-05-07T12:40:48;19.50;33.70
37530;DHT22;23374;52.758;6.872;2023-05-07T12:43:25;19.60;78.10
37530;DHT22;23374;52.758;6.872;2023-05-07T12:45:50;19.60;99.90
37530;DHT22;23374;52.758;6.872;2023-05-07T12:48:11;19.70;34.70
37530;DHT22;23374;52.758;6.872;2023-05-07T12:50:32;19.80;99.90
37530;DHT22;23374;52.758;6.872;2023-05-07T12:52:53;19.90;99.90
37530;DHT22;23374;52.758;6.872;2023-05-07T12:55:16;19.90;28.50
37530;DHT22;23374;52.758;6.872;2023-05-07T12:57:41;19.90;99.90
37530;DHT22;23374;52.758;6.872;2023-05-07T13:00:02;19.90;1.00
37530;DHT22;23374;52.758;6.872;2023-05-07T13:02:42;19.80;99.90
37530;DHT22;23374;52.758;6.872;2023-05-07T13:05:04;19.80;1.00
37530;DHT22;23374;52.758;6.872;2023-05-07T13:07:25;19.80;8.60
37530;DHT22;23374;52.758;6.872;2023-05-07T13:09:46;19.70;1.00
37530;DHT22;23374;52.758;6.872;2023-05-07T13:12:08;19.60;99.90
37530;DHT22;23374;52.758;6.872;2023-05-07T13:14:29;19.60;34.50
37530;DHT22;23374;52.758;6.872;2023-05-07T13:16:49;19.40;80.10
37530;DHT22;23374;52.758;6.872;2023-05-07T13:19:10;19.40;84.10
37530;DHT22;23374;52.758;6.872;2023-05-07T13:21:31;19.30;99.90
37530;DHT22;23374;52.758;6.872;2023-05-07T13:23:54;19.30;99.90
37530;DHT22;23374;52.758;6.872;2023-05-07T13:26:15;19.30;99.90
37530;DHT22;23374;52.758;6.872;2023-05-07T13:28:35;19.30;95.00
37530;DHT22;23374;52.758;6.872;2023-05-07T13:30:56;19.30;99.90
37530;DHT22;23374;52.758;6.872;2023-05-07T13:33:17;19.30;99.90
37530;DHT22;23374;52.758;6.872;2023-05-07T13:35:37;19.30;99.90
37530;DHT22;23374;52.758;6.872;2023-05-07T13:37:58;19.40;99.90
37530;DHT22;23374;52.758;6.872;2023-05-07T13:40:19;19.60;99.90
37530;DHT22;23374;52.758;6.872;2023-05-07T13:42:39;19.70;99.90
37530;DHT22;23374;52.758;6.872;2023-05-07T13:45:00;19.90;1.00
37530;DHT22;23374;52.758;6.872;2023-05-07T13:47:20;20.00;99.90
37530;DHT22;23374;52.758;6.872;2023-05-07T13:49:41;20.10;99.90
37530;DHT22;23374;52.758;6.872;2023-05-07T13:52:02;20.10;75.70
37530;DHT22;23374;52.758;6.872;2023-05-07T13:54:22;20.10;99.90
37530;DHT22;23374;52.758;6.872;2023-05-07T13:56:42;20.10;99.90
37530;DHT22;23374;52.758;6.872;2023-05-07T13:59:03;20.00;99.90
37530;DHT22;23374;52.758;6.872;2023-05-07T14:01:23;20.00;99.90
37530;DHT22;23374;52.758;6.872;2023-05-07T14:03:44;20.00;18.10
37530;DHT22;23374;52.758;6.872;2023-05-07T14:06:04;20.00;99.90
37530;DHT22;23374;52.758;6.872;2023-05-07T14:08:25;19.90;99.90
37530;DHT22;23374;52.758;6.872;2023-05-07T14:10:46;19.90;99.90
37530;DHT22;23374;52.758;6.872;2023-05-07T14:13:06;19.90;99.90
37530;DHT22;23374;52.758;6.872;2023-05-07T14:15:27;19.80;99.90
37530;DHT22;23374;52.758;6.872;2023-05-07T14:17:47;19.80;1.00
37530;DHT22;23374;52.758;6.872;2023-05-07T14:20:09;19.90;99.90
37530;DHT22;23374;52.758;6.872;2023-05-07T14:22:30;19.90;99.90
37530;DHT22;23374;52.758;6.872;2023-05-07T14:24:50;19.90;99.90
37530;DHT22;23374;52.758;6.872;2023-05-07T14:27:11;19.90;99.90
37530;DHT22;23374;52.758;6.872;2023-05-07T14:29:31;19.90;99.90
37530;DHT22;23374;52.758;6.872;2023-05-07T14:31:52;19.90;99.90
37530;DHT22;23374;52.758;6.872;2023-05-07T14:34:12;19.80;48.70
37530;DHT22;23374;52.758;6.872;2023-05-07T14:36:32;19.70;99.90
37530;DHT22;23374;52.758;6.872;2023-05-07T14:38:53;19.60;99.90
37530;DHT22;23374;52.758;6.872;2023-05-07T14:41:15;19.50;99.90
37530;DHT22;23374;52.758;6.872;2023-05-07T14:43:36;19.40;1.00
37530;DHT22;23374;52.758;6.872;2023-05-07T14:45:56;19.20;1.00
37530;DHT22;23374;52.758;6.872;2023-05-07T14:48:17;19.00;1.00
37530;DHT22;23374;52.758;6.872;2023-05-07T14:50:37;19.00;1.00
37530;DHT22;23374;52.758;6.872;2023-05-07T14:52:57;18.90;57.40
37530;DHT22;23374;52.758;6.872;2023-05-07T14:55:17;18.90;1.00
37530;DHT22;23374;52.758;6.872;2023-05-07T14:57:38;18.80;99.90
37530;DHT22;23374;52.758;6.872;2023-05-07T14:59:58;18.80;1.20
37530;DHT22;23374;52.758;6.872;2023-05-07T15:02:19;18.70;1.00
37530;DHT22;23374;52.758;6.872;2023-05-07T15:04:40;18.70;1.00
37530;DHT22;23374;52.758;6.872;2023-05-07T15:07:06;18.70;99.90
37530;DHT22;23374;52.758;6.872;2023-05-07T15:09:26;18.70;89.40
37530;DHT22;23374;52.758;6.872;2023-05-07T15:11:46;18.70;2.90
37530;DHT22;23374;52.758;6.872;2023-05-07T15:14:07;18.70;40.90
37530;DHT22;23374;52.758;6.872;2023-05-07T15:16:28;18.70;1.00
37530;DHT22;23374;52.758;6.872;2023-05-07T15:18:48;18.70;1.00
37530;DHT22;23374;52.758;6.872;2023-05-07T15:21:09;18.70;99.90
37530;DHT22;23374;52.758;6.872;2023-05-07T15:23:30;18.80;1.00